Impacts METAR Board
IDs:

KCSG - Columbus Arpt, GA, US

Updated at: 0900 UTC 17 Aug 2018
Potential Impact None Slight Moderate High
Time 16/21Z 16/22Z 16/23Z 17/00Z 17/01Z 17/02Z 17/03Z 17/04Z 17/05Z 17/06Z 17/07Z 17/08Z 17/09Z
Temp87 82 81 80 79 78 76 76 75 75 75 74 74
Dewpt72 72 73 72 72 71 70 71 72 72 72 72 72
Altim30.13 30.13 30.13 30.14 30.15 30.16 30.17 30.18 30.18 30.17 30.16 30.14 30.15
VIS10 10 10 10 10 10 10 10 10 10 10 10 10
CIG-- -- -- -- -- -- -- -- -- -- -- -- --
CoverCLRCLRCLRFEWCLRCLRCLRCLRCLRCLRSCTCLRCLR
FltCatVFRVFRVFRVFRVFRVFRVFRVFRVFRVFRVFRVFRVFR
WX--------------------------
WDir19023022021023021024021014001900210
WSpd12 7 9 9 5 4 3 3 3 0 4 0 3
WGst-- -- -- -- -- -- -- -- -- -- -- -- --
Raw hourly METARs
KCSG 162051Z 19012KT 10SM CLR 31/22 A3013 RMK AO2 LTG DSNT W SLP198 T03060222 55006
KCSG 162151Z 23007KT 10SM CLR 28/22 A3013 RMK AO2 SLP199 T02780222
KCSG 162251Z 22009KT 10SM CLR 27/23 A3013 RMK AO2 SLP198 T02720228
KCSG 162351Z 21009KT 10SM FEW019 27/22 A3014 RMK AO2 SLP203 T02670222 10322 20267 53004
KCSG 170051Z 23005KT 10SM CLR 26/22 A3015 RMK AO2 SLP206 T02610222
KCSG 170151Z AUTO 21004KT 10SM CLR 26/22 A3016 RMK AO2 SLP207 T02560217
KCSG 170251Z AUTO 24003KT 10SM CLR 24/21 A3017 RMK AO2 SLP212 T02440211 53009
KCSG 170351Z AUTO 21003KT 10SM CLR 24/22 A3018 RMK AO2 SLP215 T02440217
KCSG 170451Z AUTO 14003KT 10SM CLR 24/22 A3018 RMK AO2 SLP214 T02390222 403220233
KCSG 170551Z AUTO 00000KT 10SM CLR 24/22 A3017 RMK AO2 SLP210 T02390222 10267 20239 58002
KCSG 170651Z AUTO 19004KT 10SM SCT019 24/22 A3016 RMK AO2 SLP207 T02390222
KCSG 170751Z AUTO 00000KT 10SM CLR 23/22 A3014 RMK AO2 SLP201 T02330222
KCSG 170851Z AUTO 21003KT 10SM CLR 23/22 A3015 RMK AO2 SLP204 T02330222 55006



Page loaded:  09:32 UTC  |   02:32 AM Pacific  |   03:32 AM Mountain  |   04:32 AM Central  |   05:32 AM Eastern

 

ADVISORIES

FORECASTS

FORECASTS

OBSERVATIONS

USER TOOLS

ABOUT US